• Join FlightAware (Why Join?)
  • Login
  • US Flag 
04:16AM EDT


 

Airport Tracker/Info


-or-


 

Live Flight TrackerFlight Track Log ✈ CTL309 ✈ 17-Apr-2013 ✈ KBKL - KOSU

Flight Track Log - Related Links

Times and Time Zones

All times are in EDT time to prevent confusion due to time zone crossing. See the CTL309 flight status page for this flight to view local times or setup timezone preferences in your user account.

Time Position Orientation Groundspeed Altitude Reporting Facility
EDT Latitude Longitude Course Direction KTS MPH feet Rate Location/Type
09:59PM 41.5317 -81.6706 44° Northeast 132 152 1,200  Level Cleveland Center
10:00PM 41.5464 -81.6514 44° Northeast 133 153 2,100 1,260 Climbing Cleveland Center
10:01PM 41.5444 -81.6292 97° East 83 96 3,300 1,080 Climbing Cleveland Center
10:02PM 41.5175 -81.6092 151° Southeast 111 128 4,400 900 Climbing Cleveland Center
10:03PM 41.4947 -81.6033 169° South 102 117 5,200 720 Climbing Cleveland Center
10:04PM 41.4653 -81.6361 220° Southwest 125 144 6,000 300 Climbing Cleveland Center
10:05PM 41.4314 -81.6744 220° Southwest 151 174 5,900  Descending Cleveland Center
10:06PM 41.4042 -81.7097 224° Southwest 146 168 6,000  Climbing Cleveland Center
10:07PM 41.3703 -81.7425 216° Southwest 144 166 6,000 -60 Level Cleveland Center
10:08PM 41.3408 -81.7778 222° Southwest 145 167 5,900  Descending Cleveland Center
10:09PM 41.3092 -81.8106 218° Southwest 141 162 6,000  Climbing Cleveland Center
10:10PM 41.2797 -81.8403 217° Southwest 145 167 6,000  Level Cleveland Center
10:11PM 41.2481 -81.8756 220° Southwest 146 168 6,000  Level Cleveland Center
10:12PM 41.2206 -81.9053 219° Southwest 143 165 6,000  Level Cleveland Center
10:15PM 41.1417 -81.9814 216° Southwest 145 167 6,000  Level Indianapolis Center
10:16PM 41.1100 -82.0150 219° Southwest 145 167 6,000  Level Indianapolis Center
10:17PM 41.0783 -82.0475 218° Southwest 144 166 6,000  Level Indianapolis Center
10:18PM 41.0472 -82.0817 220° Southwest 143 165 6,000  Level Indianapolis Center
10:19PM 41.0172 -82.1153 220° Southwest 141 162 6,100  Climbing Indianapolis Center
10:20PM 40.9889 -82.1539 226° Southwest 144 166 6,000 -60 Descending Indianapolis Center
10:21PM 40.9572 -82.1881 219° Southwest 144 166 6,000  Level Indianapolis Center
10:22PM 40.9233 -82.2186 214° Southwest 145 167 6,100  Climbing Indianapolis Center
10:23PM 40.8939 -82.2514 220° Southwest 140 161 6,100  Level Indianapolis Center
10:24PM 40.8611 -82.2842 217° Southwest 144 166 6,100  Level Indianapolis Center
10:25PM 40.8281 -82.3189 218° Southwest 149 171 6,100  Level Indianapolis Center
10:26PM 40.7967 -82.3519 219° Southwest 145 167 6,100 -120 Level Indianapolis Center
10:27PM 40.7639 -82.3875 219° Southwest 150 173 5,900 -60 Descending Indianapolis Center
10:28PM 40.7319 -82.4217 219° Southwest 148 170 6,000  Climbing Indianapolis Center
10:29PM 40.7000 -82.4539 217° Southwest 145 167 5,900  Descending Indianapolis Center
10:30PM 40.6667 -82.4872 217° Southwest 147 169 6,000  Climbing Indianapolis Center
10:31PM 40.6292 -82.5264 218° Southwest 147 169 5,900  Descending Indianapolis Center
10:32PM 40.5975 -82.5589 218° Southwest 144 166 6,000  Climbing Indianapolis Center
10:33PM 40.5661 -82.5936 220° Southwest 144 166 6,000  Level Indianapolis Center
10:34PM 40.5339 -82.6272 218° Southwest 146 168 6,000 -60 Level Indianapolis Center
10:35PM 40.5011 -82.6583 216° Southwest 144 166 5,900  Descending Indianapolis Center
10:36PM 40.4697 -82.6928 220° Southwest 145 167 6,000  Climbing Indianapolis Center
10:37PM 40.4353 -82.7269 217° Southwest 146 168 6,000  Level Indianapolis Center
10:38PM 40.4044 -82.7581 218° Southwest 147 169 6,000  Level Indianapolis Center
10:39PM 40.3733 -82.7922 220° Southwest 145 167 6,000  Level Indianapolis Center
10:40PM 40.3394 -82.8264 218° Southwest 146 168 6,000 -240 Level Indianapolis Center
10:41PM 40.3050 -82.8628 219° Southwest 148 170 5,600 -840 Descending Indianapolis Center
10:42PM 40.2725 -82.9111 229° Southwest 184 212 4,300 -1,320 Descending Indianapolis Center
10:43PM 40.2392 -82.9700 233° Southwest 185 213 2,900 -720 Descending Indianapolis Center
10:44PM 40.2164 -83.0125 235° Southwest 176 203 2,900  Level Indianapolis Center
10:45PM 40.1956 -83.0614 241° Southwest 162 186 2,900 -240 Level Indianapolis Center
10:46PM 40.1739 -83.1119 241° Southwest 158 182 2,500 -660 Descending Indianapolis Center
10:47PM 40.1261 -83.1233 190° South 165 190 1,600 -600 Descending Indianapolis Center
10:48PM 40.0869 -83.1133 169° South 142 163 1,300 -240 Descending Indianapolis Center
10:49PM 40.0725 -83.0806 120° Southeast 135 155 1,100 -240 Descending Indianapolis Center
10:51PM 40.0667 -83.0667 North  Level FlightAware Approximate